sensor_id;sensor_type;location;lat;lon;timestamp;pressure;altitude;pressure_sealevel;temperature;humidity
55187;BME280;55457;52.002;5.464;2022-10-01T00:01:00;100036.94;;;23.03;45.96
55187;BME280;55457;52.002;5.464;2022-10-01T00:03:27;100035.31;;;23.02;45.98
55187;BME280;55457;52.002;5.464;2022-10-01T00:06:12;100029.88;;;23.02;45.97
55187;BME280;55457;52.002;5.464;2022-10-01T00:08:40;100019.81;;;23.03;45.97
55187;BME280;55457;52.002;5.464;2022-10-01T00:11:10;100013.56;;;23.02;46.12
55187;BME280;55457;52.002;5.464;2022-10-01T00:13:37;100013.56;;;23.02;46.03
55187;BME280;55457;52.002;5.464;2022-10-01T00:16:04;100016.28;;;23.02;45.96
55187;BME280;55457;52.002;5.464;2022-10-01T00:18:34;100016.56;;;23.01;46.13
55187;BME280;55457;52.002;5.464;2022-10-01T00:20:59;100022.00;;;23.01;46.26
55187;BME280;55457;52.002;5.464;2022-10-01T00:23:25;100016.56;;;23.01;46.18
55187;BME280;55457;52.002;5.464;2022-10-01T00:25:50;100013.03;;;23.00;46.29
55187;BME280;55457;52.002;5.464;2022-10-01T00:28:16;100007.59;;;23.00;46.18
55187;BME280;55457;52.002;5.464;2022-10-01T00:30:45;100003.25;;;22.99;45.97
55187;BME280;55457;52.002;5.464;2022-10-01T00:33:11;100005.16;;;22.99;46.12
55187;BME280;55457;52.002;5.464;2022-10-01T00:35:36;99986.16;;;22.99;45.94
55187;BME280;55457;52.002;5.464;2022-10-01T00:38:02;99952.72;;;22.98;46.31
55187;BME280;55457;52.002;5.464;2022-10-01T00:40:27;99950.00;;;22.98;46.21
55187;BME280;55457;52.002;5.464;2022-10-01T00:42:52;99937.53;;;22.97;46.14
55187;BME280;55457;52.002;5.464;2022-10-01T00:45:17;99933.16;;;22.96;46.11
55187;BME280;55457;52.002;5.464;2022-10-01T00:48:01;99915.78;;;22.97;46.04
55187;BME280;55457;52.002;5.464;2022-10-01T00:50:32;99910.34;;;22.97;46.40
55187;BME280;55457;52.002;5.464;2022-10-01T00:53:02;99911.41;;;22.96;46.34
55187;BME280;55457;52.002;5.464;2022-10-01T00:55:35;99913.06;;;22.97;46.19
55187;BME280;55457;52.002;5.464;2022-10-01T00:58:03;99909.50;;;22.97;46.35
55187;BME280;55457;52.002;5.464;2022-10-01T01:00:29;99900.56;;;22.96;46.01
55187;BME280;55457;52.002;5.464;2022-10-01T01:02:55;99883.75;;;22.94;46.33
55187;BME280;55457;52.002;5.464;2022-10-01T01:05:21;99900.84;;;22.95;45.92
55187;BME280;55457;52.002;5.464;2022-10-01T01:07:49;99881.03;;;22.94;46.22
55187;BME280;55457;52.002;5.464;2022-10-01T01:10:26;99871.25;;;22.93;46.07
55187;BME280;55457;52.002;5.464;2022-10-01T01:28:49;99824.00;;;22.89;46.34
55187;BME280;55457;52.002;5.464;2022-10-01T01:31:21;99821.56;;;22.87;46.20
55187;BME280;55457;52.002;5.464;2022-10-01T01:33:51;99801.72;;;22.87;46.27
55187;BME280;55457;52.002;5.464;2022-10-01T01:36:21;99781.88;;;22.86;46.40
55187;BME280;55457;52.002;5.464;2022-10-01T01:38:57;99801.72;;;22.87;46.41
55187;BME280;55457;52.002;5.464;2022-10-01T01:41:26;99791.94;;;22.86;46.34
55187;BME280;55457;52.002;5.464;2022-10-01T01:43:55;99802.81;;;22.86;46.26
55187;BME280;55457;52.002;5.464;2022-10-01T01:46:24;99802.81;;;22.86;46.15
55187;BME280;55457;52.002;5.464;2022-10-01T01:48:56;99795.75;;;22.85;46.42
55187;BME280;55457;52.002;5.464;2022-10-01T01:51:29;99794.94;;;22.84;46.55
55187;BME280;55457;52.002;5.464;2022-10-01T01:53:57;99788.69;;;22.84;46.57
55187;BME280;55457;52.002;5.464;2022-10-01T01:56:22;99774.03;;;22.85;46.45
55187;BME280;55457;52.002;5.464;2022-10-01T01:58:48;99763.16;;;22.85;46.16
55187;BME280;55457;52.002;5.464;2022-10-01T02:01:33;99769.69;;;22.84;46.29
55187;BME280;55457;52.002;5.464;2022-10-01T02:04:02;99761.53;;;22.84;46.32
55187;BME280;55457;52.002;5.464;2022-10-01T02:09:03;99771.59;;;22.83;46.57
55187;BME280;55457;52.002;5.464;2022-10-01T02:11:35;99784.66;;;22.81;46.57
55187;BME280;55457;52.002;5.464;2022-10-01T02:14:34;99781.09;;;22.81;46.63
55187;BME280;55457;52.002;5.464;2022-10-01T02:17:15;99788.44;;;22.80;46.55
55187;BME280;55457;52.002;5.464;2022-10-01T02:20:01;99775.16;;;22.79;46.31
55187;BME280;55457;52.002;5.464;2022-10-01T02:22:37;99776.25;;;22.78;46.37
55187;BME280;55457;52.002;5.464;2022-10-01T02:25:05;99773.25;;;22.79;46.36
55187;BME280;55457;52.002;5.464;2022-10-01T02:27:42;99784.13;;;22.79;46.76
55187;BME280;55457;52.002;5.464;2022-10-01T02:30:10;99781.16;;;22.76;46.42
55187;BME280;55457;52.002;5.464;2022-10-01T02:32:38;99777.38;;;22.77;46.68
55187;BME280;55457;52.002;5.464;2022-10-01T02:35:09;99759.44;;;22.76;46.86
55187;BME280;55457;52.002;5.464;2022-10-01T02:37:36;99764.34;;;22.74;46.65
55187;BME280;55457;52.002;5.464;2022-10-01T02:40:04;99768.66;;;22.75;46.68
55187;BME280;55457;52.002;5.464;2022-10-01T02:42:32;99774.41;;;22.73;46.53
55187;BME280;55457;52.002;5.464;2022-10-01T02:44:59;99766.53;;;22.72;46.70
55187;BME280;55457;52.002;5.464;2022-10-01T02:47:40;99765.44;;;22.73;46.76
55187;BME280;55457;52.002;5.464;2022-10-01T02:50:10;99770.88;;;22.73;46.53
55187;BME280;55457;52.002;5.464;2022-10-01T02:52:43;99767.63;;;22.71;46.50
55187;BME280;55457;52.002;5.464;2022-10-01T02:55:36;99785.56;;;22.72;46.82
55187;BME280;55457;52.002;5.464;2022-10-01T02:58:03;99772.25;;;22.70;46.96
55187;BME280;55457;52.002;5.464;2022-10-01T03:00:29;99776.06;;;22.69;46.79
55187;BME280;55457;52.002;5.464;2022-10-01T03:02:54;99774.16;;;22.70;46.88
55187;BME280;55457;52.002;5.464;2022-10-01T03:05:20;99775.25;;;22.69;46.80
55187;BME280;55457;52.002;5.464;2022-10-01T03:07:46;99764.38;;;22.69;46.66
55187;BME280;55457;52.002;5.464;2022-10-01T03:10:13;99757.03;;;22.69;46.84
55187;BME280;55457;52.002;5.464;2022-10-01T03:12:40;99758.94;;;22.69;47.11
55187;BME280;55457;52.002;5.464;2022-10-01T03:15:10;99751.91;;;22.67;46.79
55187;BME280;55457;52.002;5.464;2022-10-01T03:17:35;99760.06;;;22.67;47.16
55187;BME280;55457;52.002;5.464;2022-10-01T03:20:03;99756.53;;;22.67;47.13
55187;BME280;55457;52.002;5.464;2022-10-01T03:22:29;99751.38;;;22.65;47.38
55187;BME280;55457;52.002;5.464;2022-10-01T03:24:54;99745.94;;;22.65;47.11
55187;BME280;55457;52.002;5.464;2022-10-01T03:27:21;99746.47;;;22.67;46.91
55187;BME280;55457;52.002;5.464;2022-10-01T03:29:46;99744.88;;;22.66;47.03
55187;BME280;55457;52.002;5.464;2022-10-01T03:32:12;99741.03;;;22.67;47.04
55187;BME280;55457;52.002;5.464;2022-10-01T03:34:38;99747.56;;;22.66;46.88
55187;BME280;55457;52.002;5.464;2022-10-01T03:37:03;99741.59;;;22.64;47.26
55187;BME280;55457;52.002;5.464;2022-10-01T03:39:29;99741.59;;;22.64;47.08
55187;BME280;55457;52.002;5.464;2022-10-01T03:41:54;99746.22;;;22.64;47.18
55187;BME280;55457;52.002;5.464;2022-10-01T03:44:20;99747.03;;;22.64;47.08
55187;BME280;55457;52.002;5.464;2022-10-01T03:46:46;99733.75;;;22.63;47.21
55187;BME280;55457;52.002;5.464;2022-10-01T03:49:11;99738.66;;;22.61;47.04
55187;BME280;55457;52.002;5.464;2022-10-01T03:51:36;99740.28;;;22.62;47.22
55187;BME280;55457;52.002;5.464;2022-10-01T03:54:03;99745.41;;;22.63;46.99
55187;BME280;55457;52.002;5.464;2022-10-01T03:56:29;99754.66;;;22.62;47.31
55187;BME280;55457;52.002;5.464;2022-10-01T03:58:55;99750.34;;;22.61;47.13
55187;BME280;55457;52.002;5.464;2022-10-01T04:01:20;99739.72;;;22.60;47.10
55187;BME280;55457;52.002;5.464;2022-10-01T04:03:46;99753.06;;;22.61;47.23
55187;BME280;55457;52.002;5.464;2022-10-01T04:06:11;99741.38;;;22.61;47.16
55187;BME280;55457;52.002;5.464;2022-10-01T04:08:37;99743.28;;;22.60;47.22
55187;BME280;55457;52.002;5.464;2022-10-01T04:11:04;99736.75;;;22.61;47.11
55187;BME280;55457;52.002;5.464;2022-10-01T04:13:30;99744.34;;;22.59;47.15
55187;BME280;55457;52.002;5.464;2022-10-01T04:15:55;99753.31;;;22.60;47.43
55187;BME280;55457;52.002;5.464;2022-10-01T04:18:20;99758.75;;;22.60;47.36
55187;BME280;55457;52.002;5.464;2022-10-01T04:20:46;99759.59;;;22.60;47.54
55187;BME280;55457;52.002;5.464;2022-10-01T04:23:12;99762.31;;;22.60;47.61
55187;BME280;55457;52.002;5.464;2022-10-01T04:25:37;99767.72;;;22.60;47.43
55187;BME280;55457;52.002;5.464;2022-10-01T04:28:05;99776.69;;;22.61;47.43
55187;BME280;55457;52.002;5.464;2022-10-01T04:30:33;99781.31;;;22.60;47.45
55187;BME280;55457;52.002;5.464;2022-10-01T04:32:59;99769.91;;;22.58;47.44
55187;BME280;55457;52.002;5.464;2022-10-01T04:35:26;99780.22;;;22.61;47.33
55187;BME280;55457;52.002;5.464;2022-10-01T04:37:59;99792.69;;;22.62;47.56
55187;BME280;55457;52.002;5.464;2022-10-01T04:40:30;99796.22;;;22.63;47.63
55187;BME280;55457;52.002;5.464;2022-10-01T04:42:56;99798.13;;;22.62;47.43
55187;BME280;55457;52.002;5.464;2022-10-01T04:45:22;99798.91;;;22.63;47.48
55187;BME280;55457;52.002;5.464;2022-10-01T04:47:51;99798.91;;;22.63;47.35
55187;BME280;55457;52.002;5.464;2022-10-01T04:50:18;99801.94;;;22.61;47.31
55187;BME280;55457;52.002;5.464;2022-10-01T04:52:43;99807.38;;;22.61;47.35
55187;BME280;55457;52.002;5.464;2022-10-01T04:55:09;99814.41;;;22.62;47.78
55187;BME280;55457;52.002;5.464;2022-10-01T04:57:36;99814.91;;;22.64;47.70
55187;BME280;55457;52.002;5.464;2022-10-01T05:00:01;99812.78;;;22.61;47.55
55187;BME280;55457;52.002;5.464;2022-10-01T05:02:28;99821.44;;;22.63;47.68
55187;BME280;55457;52.002;5.464;2022-10-01T05:04:53;99826.88;;;22.63;47.62
55187;BME280;55457;52.002;5.464;2022-10-01T05:07:20;99826.88;;;22.63;47.48
55187;BME280;55457;52.002;5.464;2022-10-01T05:09:46;99826.88;;;22.63;47.32
55187;BME280;55457;52.002;5.464;2022-10-01T05:12:11;99824.97;;;22.64;47.34
55187;BME280;55457;52.002;5.464;2022-10-01T05:14:36;99833.94;;;22.64;47.42
55187;BME280;55457;52.002;5.464;2022-10-01T05:17:02;99839.38;;;22.64;47.45
55187;BME280;55457;52.002;5.464;2022-10-01T05:19:27;99842.88;;;22.65;47.77
55187;BME280;55457;52.002;5.464;2022-10-01T05:21:53;99844.78;;;22.64;47.57
55187;BME280;55457;52.002;5.464;2022-10-01T05:24:19;99853.50;;;22.66;47.73
55187;BME280;55457;52.002;5.464;2022-10-01T05:26:44;99851.84;;;22.65;47.78
55187;BME280;55457;52.002;5.464;2022-10-01T05:29:09;99860.00;;;22.65;48.01
55187;BME280;55457;52.002;5.464;2022-10-01T05:31:35;99864.34;;;22.66;47.98
55187;BME280;55457;52.002;5.464;2022-10-01T05:34:01;99865.16;;;22.67;48.04
55187;BME280;55457;52.002;5.464;2022-10-01T05:36:26;99873.81;;;22.69;47.71
55187;BME280;55457;52.002;5.464;2022-10-01T05:38:51;99873.81;;;22.69;48.01
55187;BME280;55457;52.002;5.464;2022-10-01T05:41:17;99877.34;;;22.70;48.04
55187;BME280;55457;52.002;5.464;2022-10-01T05:43:43;99874.63;;;22.70;48.04
55187;BME280;55457;52.002;5.464;2022-10-01T05:46:11;99881.69;;;22.71;48.02
55187;BME280;55457;52.002;5.464;2022-10-01T05:48:36;99886.03;;;22.72;48.04
55187;BME280;55457;52.002;5.464;2022-10-01T05:51:03;99886.03;;;22.72;48.20
55187;BME280;55457;52.002;5.464;2022-10-01T05:53:31;99891.47;;;22.72;48.29
55187;BME280;55457;52.002;5.464;2022-10-01T05:55:58;99899.63;;;22.72;47.96
55187;BME280;55457;52.002;5.464;2022-10-01T05:58:27;99898.53;;;22.73;48.00
55187;BME280;55457;52.002;5.464;2022-10-01T06:00:53;99906.69;;;22.73;48.03
55187;BME280;55457;52.002;5.464;2022-10-01T06:03:19;99903.66;;;22.74;48.11
55187;BME280;55457;52.002;5.464;2022-10-01T06:05:44;99912.63;;;22.75;48.25
55187;BME280;55457;52.002;5.464;2022-10-01T06:08:10;99909.91;;;22.75;48.09
55187;BME280;55457;52.002;5.464;2022-10-01T06:10:36;99911.53;;;22.76;48.19
55187;BME280;55457;52.002;5.464;2022-10-01T06:13:02;99907.19;;;22.75;48.28
55187;BME280;55457;52.002;5.464;2022-10-01T06:15:31;99904.47;;;22.75;48.23
55187;BME280;55457;52.002;5.464;2022-10-01T06:18:01;99905.28;;;22.75;48.42
55187;BME280;55457;52.002;5.464;2022-10-01T06:20:26;99908.28;;;22.74;48.52
55187;BME280;55457;52.002;5.464;2022-10-01T06:22:54;99908.81;;;22.76;48.17
55187;BME280;55457;52.002;5.464;2022-10-01T06:25:20;99913.44;;;22.75;48.35
55187;BME280;55457;52.002;5.464;2022-10-01T06:27:52;99905.28;;;22.75;48.34
55187;BME280;55457;52.002;5.464;2022-10-01T06:30:19;99913.19;;;22.77;48.47
55187;BME280;55457;52.002;5.464;2022-10-01T06:32:44;99921.31;;;22.77;48.34
55187;BME280;55457;52.002;5.464;2022-10-01T06:35:10;99908.81;;;22.76;48.63
55187;BME280;55457;52.002;5.464;2022-10-01T06:37:36;99920.22;;;22.78;48.54
55187;BME280;55457;52.002;5.464;2022-10-01T06:40:03;99917.81;;;22.76;48.70
55187;BME280;55457;52.002;5.464;2022-10-01T06:42:28;99924.03;;;22.77;48.47
55187;BME280;55457;52.002;5.464;2022-10-01T06:44:53;99918.59;;;22.77;48.27
55187;BME280;55457;52.002;5.464;2022-10-01T06:47:18;99922.41;;;22.76;48.63
55187;BME280;55457;52.002;5.464;2022-10-01T06:49:44;99928.66;;;22.76;48.88
55187;BME280;55457;52.002;5.464;2022-10-01T06:52:09;99927.81;;;22.76;48.62
55187;BME280;55457;52.002;5.464;2022-10-01T06:54:53;99936.81;;;22.76;48.47
55187;BME280;55457;52.002;5.464;2022-10-01T06:57:19;99932.44;;;22.75;48.70
55187;BME280;55457;52.002;5.464;2022-10-01T06:59:44;99935.97;;;22.76;48.68
55187;BME280;55457;52.002;5.464;2022-10-01T07:02:20;99932.44;;;22.75;48.69
55187;BME280;55457;52.002;5.464;2022-10-01T07:04:46;99939.53;;;22.76;48.90
55187;BME280;55457;52.002;5.464;2022-10-01T07:07:12;99931.63;;;22.75;48.46
55187;BME280;55457;52.002;5.464;2022-10-01T07:09:37;99944.13;;;22.76;48.69
55187;BME280;55457;52.002;5.464;2022-10-01T07:12:02;99949.56;;;22.76;48.67
55187;BME280;55457;52.002;5.464;2022-10-01T07:14:29;99949.56;;;22.76;48.68
55187;BME280;55457;52.002;5.464;2022-10-01T07:16:54;99956.63;;;22.77;48.77
55187;BME280;55457;52.002;5.464;2022-10-01T07:19:19;99962.06;;;22.77;48.84
55187;BME280;55457;52.002;5.464;2022-10-01T07:21:47;99953.91;;;22.77;48.89
55187;BME280;55457;52.002;5.464;2022-10-01T07:24:12;99950.41;;;22.76;48.84
55187;BME280;55457;52.002;5.464;2022-10-01T07:26:38;99954.19;;;22.75;49.23
55187;BME280;55457;52.002;5.464;2022-10-01T07:29:03;99966.94;;;22.75;49.12
55187;BME280;55457;52.002;5.464;2022-10-01T07:31:30;99969.16;;;22.73;48.64
55187;BME280;55457;52.002;5.464;2022-10-01T07:33:56;99972.16;;;22.71;49.28
55187;BME280;55457;52.002;5.464;2022-10-01T07:36:22;99984.09;;;22.70;49.49
55187;BME280;55457;52.002;5.464;2022-10-01T07:38:48;99983.28;;;22.70;49.25
55187;BME280;55457;52.002;5.464;2022-10-01T07:41:15;99989.81;;;22.69;49.23
55187;BME280;55457;52.002;5.464;2022-10-01T07:43:42;99985.47;;;22.67;49.31
55187;BME280;55457;52.002;5.464;2022-10-01T07:46:08;99988.72;;;22.70;49.54
55187;BME280;55457;52.002;5.464;2022-10-01T07:48:33;99997.41;;;22.72;49.26
55187;BME280;55457;52.002;5.464;2022-10-01T07:50:59;99996.59;;;22.71;49.41
55187;BME280;55457;52.002;5.464;2022-10-01T07:53:24;99998.22;;;22.72;49.35
55187;BME280;55457;52.002;5.464;2022-10-01T07:55:50;100003.66;;;22.72;49.59
55187;BME280;55457;52.002;5.464;2022-10-01T07:58:16;100009.88;;;22.73;49.39
55187;BME280;55457;52.002;5.464;2022-10-01T08:00:42;100007.19;;;22.73;49.64
55187;BME280;55457;52.002;5.464;2022-10-01T08:03:09;100010.41;;;22.75;49.36
55187;BME280;55457;52.002;5.464;2022-10-01T08:05:39;100012.59;;;22.78;49.30
55187;BME280;55457;52.002;5.464;2022-10-01T08:08:06;100011.78;;;22.77;49.36
55187;BME280;55457;52.002;5.464;2022-10-01T08:10:33;100010.97;;;22.77;49.77
55187;BME280;55457;52.002;5.464;2022-10-01T08:13:01;100028.06;;;22.77;49.77
55187;BME280;55457;52.002;5.464;2022-10-01T08:15:28;100028.06;;;22.77;49.68
55187;BME280;55457;52.002;5.464;2022-10-01T08:17:54;100044.38;;;22.77;49.73
55187;BME280;55457;52.002;5.464;2022-10-01T08:20:19;100045.72;;;22.75;49.63
55187;BME280;55457;52.002;5.464;2022-10-01T08:22:45;100042.75;;;22.76;50.04
55187;BME280;55457;52.002;5.464;2022-10-01T08:25:10;100040.28;;;22.75;49.84
55187;BME280;55457;52.002;5.464;2022-10-01T08:27:36;100040.28;;;22.75;49.73
55187;BME280;55457;52.002;5.464;2022-10-01T08:30:02;100035.97;;;22.74;49.95
55187;BME280;55457;52.002;5.464;2022-10-01T08:32:27;100040.28;;;22.75;49.88
55187;BME280;55457;52.002;5.464;2022-10-01T08:34:53;100049.53;;;22.74;49.86
55187;BME280;55457;52.002;5.464;2022-10-01T08:37:23;100051.97;;;22.75;49.90
55187;BME280;55457;52.002;5.464;2022-10-01T08:39:48;100042.47;;;22.73;49.89
55187;BME280;55457;52.002;5.464;2022-10-01T08:45:08;100049.53;;;22.74;49.53
55187;BME280;55457;52.002;5.464;2022-10-01T08:47:42;100054.97;;;22.74;49.60
55187;BME280;55457;52.002;5.464;2022-10-01T08:50:14;100054.16;;;22.73;49.73
55187;BME280;55457;52.002;5.464;2022-10-01T08:52:50;100058.78;;;22.73;50.07
55187;BME280;55457;52.002;5.464;2022-10-01T08:55:21;100066.13;;;22.72;49.62
55187;BME280;55457;52.002;5.464;2022-10-01T08:57:51;100078.91;;;22.72;49.83
55187;BME280;55457;52.002;5.464;2022-10-01T09:00:18;100090.00;;;22.70;50.17
55187;BME280;55457;52.002;5.464;2022-10-01T09:02:44;100084.31;;;22.72;50.04
55187;BME280;55457;52.002;5.464;2022-10-01T09:16:00;100100.28;;;22.99;50.31
55187;BME280;55457;52.002;5.464;2022-10-01T09:20:57;100101.56;;;23.11;49.98
55187;BME280;55457;52.002;5.464;2022-10-01T09:25:49;100100.72;;;23.16;49.68
55187;BME280;55457;52.002;5.464;2022-10-01T09:28:28;100109.13;;;23.25;49.96
55187;BME280;55457;52.002;5.464;2022-10-01T09:33:36;100106.81;;;23.42;50.02
55187;BME280;55457;52.002;5.464;2022-10-01T09:36:21;100107.91;;;23.46;50.19
55187;BME280;55457;52.002;5.464;2022-10-01T09:39:03;100112.81;;;23.44;49.56
55187;BME280;55457;52.002;5.464;2022-10-01T09:41:34;100110.66;;;23.41;49.41
55187;BME280;55457;52.002;5.464;2022-10-01T09:43:59;100112.56;;;23.40;49.45
55187;BME280;55457;52.002;5.464;2022-10-01T09:46:25;100126.44;;;23.39;49.70
55187;BME280;55457;52.002;5.464;2022-10-01T09:48:54;100131.88;;;23.39;49.51
55187;BME280;55457;52.002;5.464;2022-10-01T09:51:36;100135.16;;;23.36;49.61
55187;BME280;55457;52.002;5.464;2022-10-01T09:54:11;100145.97;;;23.46;49.73
55187;BME280;55457;52.002;5.464;2022-10-01T09:56:58;100139.88;;;23.59;49.67
55187;BME280;55457;52.002;5.464;2022-10-01T09:59:46;100134.97;;;23.72;49.42
55187;BME280;55457;52.002;5.464;2022-10-01T10:02:29;100145.59;;;23.68;49.13
55187;BME280;55457;52.002;5.464;2022-10-01T10:05:07;100140.44;;;23.61;49.25
55187;BME280;55457;52.002;5.464;2022-10-01T10:07:33;100144.81;;;23.57;49.40
55187;BME280;55457;52.002;5.464;2022-10-01T10:10:20;100161.44;;;23.51;49.56
55187;BME280;55457;52.002;5.464;2022-10-01T10:13:00;100167.66;;;23.56;49.66
55187;BME280;55457;52.002;5.464;2022-10-01T10:15:26;100160.03;;;23.63;49.98
55187;BME280;55457;52.002;5.464;2022-10-01T10:17:53;100170.03;;;23.73;49.85
55187;BME280;55457;52.002;5.464;2022-10-01T10:20:28;100176.50;;;23.82;50.02
55187;BME280;55457;52.002;5.464;2022-10-01T10:23:05;100184.59;;;23.92;49.45
55187;BME280;55457;52.002;5.464;2022-10-01T10:25:31;100194.03;;;24.05;49.75
55187;BME280;55457;52.002;5.464;2022-10-01T10:27:56;100198.63;;;24.10;49.36
55187;BME280;55457;52.002;5.464;2022-10-01T10:30:24;100208.66;;;24.14;49.38
55187;BME280;55457;52.002;5.464;2022-10-01T10:33:00;100213.03;;;24.10;48.96
55187;BME280;55457;52.002;5.464;2022-10-01T10:35:26;100214.69;;;24.06;49.08
55187;BME280;55457;52.002;5.464;2022-10-01T10:37:54;100215.22;;;24.13;49.26
55187;BME280;55457;52.002;5.464;2022-10-01T10:40:24;100217.34;;;24.16;49.18
55187;BME280;55457;52.002;5.464;2022-10-01T10:42:53;100227.34;;;24.26;49.25
55187;BME280;55457;52.002;5.464;2022-10-01T10:45:29;100215.59;;;24.36;48.95
55187;BME280;55457;52.002;5.464;2022-10-01T10:47:55;100226.16;;;24.42;48.75
55187;BME280;55457;52.002;5.464;2022-10-01T10:50:37;100226.38;;;24.51;48.87
55187;BME280;55457;52.002;5.464;2022-10-01T10:53:24;100230.63;;;24.62;48.72
55187;BME280;55457;52.002;5.464;2022-10-01T10:56:00;100238.00;;;24.62;47.71
55187;BME280;55457;52.002;5.464;2022-10-01T10:58:30;100248.94;;;24.57;48.06
55187;BME280;55457;52.002;5.464;2022-10-01T11:00:59;100255.44;;;24.61;48.30
55187;BME280;55457;52.002;5.464;2022-10-01T11:03:28;100253.91;;;24.50;47.91
55187;BME280;55457;52.002;5.464;2022-10-01T11:06:16;100257.47;;;24.45;48.37
55187;BME280;55457;52.002;5.464;2022-10-01T11:08:43;100257.53;;;24.40;48.36
55187;BME280;55457;52.002;5.464;2022-10-01T11:13:48;100275.31;;;24.61;48.37
55187;BME280;55457;52.002;5.464;2022-10-01T11:30:25;100287.34;;;25.18;47.34
55187;BME280;55457;52.002;5.464;2022-10-01T11:35:47;100289.38;;;25.32;46.89
55187;BME280;55457;52.002;5.464;2022-10-01T11:38:24;100311.13;;;25.37;47.06
55187;BME280;55457;52.002;5.464;2022-10-01T11:41:00;100310.91;;;25.33;46.72
55187;BME280;55457;52.002;5.464;2022-10-01T11:43:51;100310.47;;;25.21;46.68
55187;BME280;55457;52.002;5.464;2022-10-01T11:49:22;100335.13;;;25.11;46.80
55187;BME280;55457;52.002;5.464;2022-10-01T11:54:37;100345.22;;;25.05;47.10
55187;BME280;55457;52.002;5.464;2022-10-01T11:57:04;100345.06;;;24.96;47.06
55187;BME280;55457;52.002;5.464;2022-10-01T11:59:52;100353.03;;;24.88;46.77
55187;BME280;55457;52.002;5.464;2022-10-01T12:02:29;100356.91;;;24.82;47.13
55187;BME280;55457;52.002;5.464;2022-10-01T12:05:02;100349.75;;;24.91;47.43
55187;BME280;55457;52.002;5.464;2022-10-01T12:07:37;100354.38;;;24.90;47.40
55187;BME280;55457;52.002;5.464;2022-10-01T12:15:56;100362.91;;;24.79;47.06
55187;BME280;55457;52.002;5.464;2022-10-01T12:21:07;100361.59;;;24.76;47.00
55187;BME280;55457;52.002;5.464;2022-10-01T12:23:46;100362.31;;;24.87;47.07
55187;BME280;55457;52.002;5.464;2022-10-01T12:26:32;100364.41;;;24.95;47.03
55187;BME280;55457;52.002;5.464;2022-10-01T12:31:47;100373.13;;;24.97;47.01
55187;BME280;55457;52.002;5.464;2022-10-01T12:39:29;100395.09;;;24.77;46.81
55187;BME280;55457;52.002;5.464;2022-10-01T12:42:46;100399.19;;;24.74;46.71
55187;BME280;55457;52.002;5.464;2022-10-01T12:45:29;100408.34;;;24.88;46.72
55187;BME280;55457;52.002;5.464;2022-10-01T12:48:18;100419.19;;;24.98;47.09
55187;BME280;55457;52.002;5.464;2022-10-01T12:53:23;100407.66;;;25.12;46.58
55187;BME280;55457;52.002;5.464;2022-10-01T12:56:07;100420.66;;;25.20;46.41
55187;BME280;55457;52.002;5.464;2022-10-01T12:58:48;100412.69;;;25.29;46.10
55187;BME280;55457;52.002;5.464;2022-10-01T13:01:38;100409.38;;;25.32;46.06
55187;BME280;55457;52.002;5.464;2022-10-01T13:07:05;100420.88;;;25.29;45.86
55187;BME280;55457;52.002;5.464;2022-10-01T13:09:49;100420.81;;;25.34;46.01
55187;BME280;55457;52.002;5.464;2022-10-01T13:15:12;100439.50;;;25.21;45.88
55187;BME280;55457;52.002;5.464;2022-10-01T13:17:48;100440.09;;;25.13;45.79
55187;BME280;55457;52.002;5.464;2022-10-01T13:20:26;100448.75;;;25.20;45.84
55187;BME280;55457;52.002;5.464;2022-10-01T13:23:05;100450.06;;;25.28;46.03
55187;BME280;55457;52.002;5.464;2022-10-01T13:25:57;100460.63;;;25.35;45.94
55187;BME280;55457;52.002;5.464;2022-10-01T13:31:16;100466.59;;;25.37;45.49
55187;BME280;55457;52.002;5.464;2022-10-01T13:33:55;100466.59;;;25.37;45.16
55187;BME280;55457;52.002;5.464;2022-10-01T13:36:33;100475.69;;;25.32;45.64
55187;BME280;55457;52.002;5.464;2022-10-01T13:38:59;100475.63;;;25.37;45.62
55187;BME280;55457;52.002;5.464;2022-10-01T13:41:29;100481.56;;;25.44;45.38
55187;BME280;55457;52.002;5.464;2022-10-01T13:44:14;100469.78;;;25.49;45.56
55187;BME280;55457;52.002;5.464;2022-10-01T13:46:55;100484.50;;;25.53;45.20
55187;BME280;55457;52.002;5.464;2022-10-01T13:49:27;100485.81;;;25.56;45.17
55187;BME280;55457;52.002;5.464;2022-10-01T13:51:54;100487.28;;;25.48;45.08
55187;BME280;55457;52.002;5.464;2022-10-01T13:54:44;100494.38;;;25.44;44.91
55187;BME280;55457;52.002;5.464;2022-10-01T13:57:32;100491.16;;;25.37;45.23
55187;BME280;55457;52.002;5.464;2022-10-01T14:02:38;100507.22;;;25.43;45.39
55187;BME280;55457;52.002;5.464;2022-10-01T14:07:42;100522.69;;;25.53;45.28
55187;BME280;55457;52.002;5.464;2022-10-01T14:10:13;100521.03;;;25.52;45.31
55187;BME280;55457;52.002;5.464;2022-10-01T14:12:41;100532.53;;;25.49;44.69
55187;BME280;55457;52.002;5.464;2022-10-01T14:15:36;100521.03;;;25.52;44.74
55187;BME280;55457;52.002;5.464;2022-10-01T14:18:23;100530.34;;;25.51;44.84
55187;BME280;55457;52.002;5.464;2022-10-01T14:26:45;100542.16;;;25.36;45.00
55187;BME280;55457;52.002;5.464;2022-10-01T14:32:29;100537.66;;;25.21;44.87
55187;BME280;55457;52.002;5.464;2022-10-01T14:37:45;100558.59;;;25.26;45.30
55187;BME280;55457;52.002;5.464;2022-10-01T14:40:17;100557.28;;;25.23;45.40
55187;BME280;55457;52.002;5.464;2022-10-01T14:42:54;100552.91;;;25.28;45.46
55187;BME280;55457;52.002;5.464;2022-10-01T14:45:19;100555.03;;;25.31;45.28
55187;BME280;55457;52.002;5.464;2022-10-01T14:47:45;100570.41;;;25.21;45.15
55187;BME280;55457;52.002;5.464;2022-10-01T14:50:19;100560.06;;;25.13;45.38
55187;BME280;55457;52.002;5.464;2022-10-01T14:52:47;100569.91;;;25.04;45.18
55187;BME280;55457;52.002;5.464;2022-10-01T14:55:18;100579.50;;;24.96;45.65
55187;BME280;55457;52.002;5.464;2022-10-01T14:57:48;100580.81;;;25.04;45.45
55187;BME280;55457;52.002;5.464;2022-10-01T15:00:23;100578.09;;;25.09;45.50